sensor_id;sensor_type;location;lat;lon;timestamp;P1;durP1;ratioP1;P2;durP2;ratioP2
32872;SDS011;19224;52.462;16.898;2023-04-01T00:00:11;8.05;;;5.70;;
32872;SDS011;19224;52.462;16.898;2023-04-01T00:02:43;9.23;;;5.47;;
32872;SDS011;19224;52.462;16.898;2023-04-01T00:05:14;9.33;;;4.87;;
32872;SDS011;19224;52.462;16.898;2023-04-01T00:07:45;8.20;;;5.10;;
32872;SDS011;19224;52.462;16.898;2023-04-01T00:10:15;9.48;;;5.05;;
32872;SDS011;19224;52.462;16.898;2023-04-01T00:12:45;8.88;;;5.17;;
32872;SDS011;19224;52.462;16.898;2023-04-01T00:15:16;10.78;;;5.20;;
32872;SDS011;19224;52.462;16.898;2023-04-01T00:17:46;7.55;;;5.20;;
32872;SDS011;19224;52.462;16.898;2023-04-01T00:20:17;9.78;;;5.35;;
32872;SDS011;19224;52.462;16.898;2023-04-01T00:22:47;7.22;;;5.03;;
32872;SDS011;19224;52.462;16.898;2023-04-01T00:25:18;9.35;;;4.78;;
32872;SDS011;19224;52.462;16.898;2023-04-01T00:27:48;6.78;;;4.70;;
32872;SDS011;19224;52.462;16.898;2023-04-01T00:30:18;6.25;;;4.58;;
32872;SDS011;19224;52.462;16.898;2023-04-01T00:32:51;7.83;;;4.62;;
32872;SDS011;19224;52.462;16.898;2023-04-01T00:35:21;7.70;;;4.58;;
32872;SDS011;19224;52.462;16.898;2023-04-01T00:37:52;6.35;;;4.37;;
32872;SDS011;19224;52.462;16.898;2023-04-01T00:40:31;8.10;;;5.25;;
32872;SDS011;19224;52.462;16.898;2023-04-01T00:43:10;8.53;;;5.12;;
32872;SDS011;19224;52.462;16.898;2023-04-01T00:45:46;6.25;;;4.45;;
32872;SDS011;19224;52.462;16.898;2023-04-01T00:48:19;5.80;;;4.35;;
32872;SDS011;19224;52.462;16.898;2023-04-01T00:50:59;8.35;;;5.22;;
32872;SDS011;19224;52.462;16.898;2023-04-01T00:53:28;7.40;;;4.90;;
32872;SDS011;19224;52.462;16.898;2023-04-01T00:56:03;7.15;;;5.00;;
32872;SDS011;19224;52.462;16.898;2023-04-01T00:58:36;6.47;;;4.80;;
32872;SDS011;19224;52.462;16.898;2023-04-01T01:01:10;9.48;;;5.28;;
32872;SDS011;19224;52.462;16.898;2023-04-01T01:03:41;7.40;;;4.58;;
32872;SDS011;19224;52.462;16.898;2023-04-01T01:12:14;8.68;;;5.37;;
32872;SDS011;19224;52.462;16.898;2023-04-01T01:17:43;7.33;;;4.83;;
32872;SDS011;19224;52.462;16.898;2023-04-01T01:32:32;7.75;;;4.67;;
32872;SDS011;19224;52.462;16.898;2023-04-01T01:35:35;5.62;;;4.40;;
32872;SDS011;19224;52.462;16.898;2023-04-01T01:38:26;6.10;;;4.22;;
32872;SDS011;19224;52.462;16.898;2023-04-01T01:40:55;7.40;;;5.25;;
32872;SDS011;19224;52.462;16.898;2023-04-01T01:43:30;5.60;;;4.50;;
32872;SDS011;19224;52.462;16.898;2023-04-01T01:46:11;6.00;;;4.83;;
32872;SDS011;19224;52.462;16.898;2023-04-01T01:48:48;6.53;;;4.72;;
32872;SDS011;19224;52.462;16.898;2023-04-01T01:51:21;6.20;;;4.50;;
32872;SDS011;19224;52.462;16.898;2023-04-01T01:53:53;6.25;;;4.92;;
32872;SDS011;19224;52.462;16.898;2023-04-01T01:56:23;5.95;;;4.92;;
32872;SDS011;19224;52.462;16.898;2023-04-01T01:59:03;7.60;;;4.40;;
32872;SDS011;19224;52.462;16.898;2023-04-01T02:01:35;5.85;;;4.90;;
32872;SDS011;19224;52.462;16.898;2023-04-01T02:04:08;5.95;;;4.75;;
32872;SDS011;19224;52.462;16.898;2023-04-01T02:06:50;8.33;;;5.15;;
32872;SDS011;19224;52.462;16.898;2023-04-01T02:09:32;8.10;;;4.87;;
32872;SDS011;19224;52.462;16.898;2023-04-01T02:12:08;8.88;;;4.55;;
32872;SDS011;19224;52.462;16.898;2023-04-01T02:14:39;8.80;;;4.92;;
32872;SDS011;19224;52.462;16.898;2023-04-01T02:17:21;6.08;;;4.65;;
32872;SDS011;19224;52.462;16.898;2023-04-01T02:22:37;6.78;;;5.28;;
32872;SDS011;19224;52.462;16.898;2023-04-01T02:25:12;7.37;;;5.40;;
32872;SDS011;19224;52.462;16.898;2023-04-01T02:27:45;6.58;;;4.97;;
32872;SDS011;19224;52.462;16.898;2023-04-01T02:30:16;7.15;;;5.35;;
32872;SDS011;19224;52.462;16.898;2023-04-01T02:32:47;6.15;;;4.60;;
32872;SDS011;19224;52.462;16.898;2023-04-01T02:35:18;7.08;;;4.95;;
32872;SDS011;19224;52.462;16.898;2023-04-01T02:37:49;6.97;;;4.62;;
32872;SDS011;19224;52.462;16.898;2023-04-01T02:40:21;6.22;;;5.12;;
32872;SDS011;19224;52.462;16.898;2023-04-01T02:42:52;7.85;;;5.35;;
32872;SDS011;19224;52.462;16.898;2023-04-01T02:45:23;7.20;;;5.12;;
32872;SDS011;19224;52.462;16.898;2023-04-01T02:47:53;10.08;;;5.78;;
32872;SDS011;19224;52.462;16.898;2023-04-01T02:50:24;6.40;;;4.97;;
32872;SDS011;19224;52.462;16.898;2023-04-01T02:52:54;8.25;;;5.22;;
32872;SDS011;19224;52.462;16.898;2023-04-01T02:55:25;7.78;;;5.28;;
32872;SDS011;19224;52.462;16.898;2023-04-01T02:57:55;8.10;;;5.25;;
32872;SDS011;19224;52.462;16.898;2023-04-01T03:00:26;6.75;;;5.25;;
32872;SDS011;19224;52.462;16.898;2023-04-01T03:02:57;6.35;;;5.35;;
32872;SDS011;19224;52.462;16.898;2023-04-01T03:05:28;7.60;;;5.08;;
32872;SDS011;19224;52.462;16.898;2023-04-01T03:07:58;8.08;;;5.22;;
32872;SDS011;19224;52.462;16.898;2023-04-01T03:10:29;7.03;;;4.87;;
32872;SDS011;19224;52.462;16.898;2023-04-01T03:13:00;7.42;;;5.47;;
32872;SDS011;19224;52.462;16.898;2023-04-01T03:15:30;7.90;;;5.37;;
32872;SDS011;19224;52.462;16.898;2023-04-01T03:18:01;7.78;;;5.33;;
32872;SDS011;19224;52.462;16.898;2023-04-01T03:20:32;7.55;;;5.17;;
32872;SDS011;19224;52.462;16.898;2023-04-01T03:23:02;7.53;;;5.28;;
32872;SDS011;19224;52.462;16.898;2023-04-01T03:25:33;7.50;;;4.97;;
32872;SDS011;19224;52.462;16.898;2023-04-01T03:28:03;7.17;;;5.05;;
32872;SDS011;19224;52.462;16.898;2023-04-01T03:30:34;6.62;;;4.97;;
32872;SDS011;19224;52.462;16.898;2023-04-01T03:33:05;6.55;;;4.97;;
32872;SDS011;19224;52.462;16.898;2023-04-01T03:35:35;6.03;;;4.90;;
32872;SDS011;19224;52.462;16.898;2023-04-01T03:38:06;6.10;;;5.17;;
32872;SDS011;19224;52.462;16.898;2023-04-01T03:40:36;6.10;;;5.17;;
32872;SDS011;19224;52.462;16.898;2023-04-01T03:43:09;6.25;;;4.97;;
32872;SDS011;19224;52.462;16.898;2023-04-01T03:45:47;5.92;;;5.05;;
32872;SDS011;19224;52.462;16.898;2023-04-01T03:48:19;8.23;;;5.67;;
32872;SDS011;19224;52.462;16.898;2023-04-01T03:50:50;7.03;;;5.37;;
32872;SDS011;19224;52.462;16.898;2023-04-01T03:53:21;14.07;;;6.45;;
32872;SDS011;19224;52.462;16.898;2023-04-01T03:55:51;9.83;;;5.85;;
32872;SDS011;19224;52.462;16.898;2023-04-01T03:58:22;7.80;;;5.75;;
32872;SDS011;19224;52.462;16.898;2023-04-01T04:00:52;10.30;;;6.17;;
32872;SDS011;19224;52.462;16.898;2023-04-01T04:03:23;10.95;;;5.72;;
32872;SDS011;19224;52.462;16.898;2023-04-01T04:05:53;8.23;;;5.72;;
32872;SDS011;19224;52.462;16.898;2023-04-01T04:08:24;8.05;;;6.33;;
32872;SDS011;19224;52.462;16.898;2023-04-01T04:10:55;8.23;;;6.25;;
32872;SDS011;19224;52.462;16.898;2023-04-01T04:13:26;11.55;;;6.28;;
32872;SDS011;19224;52.462;16.898;2023-04-01T04:15:57;8.83;;;6.33;;
32872;SDS011;19224;52.462;16.898;2023-04-01T04:18:28;11.43;;;6.85;;
32872;SDS011;19224;52.462;16.898;2023-04-01T04:20:59;8.23;;;6.10;;
32872;SDS011;19224;52.462;16.898;2023-04-01T04:23:29;8.23;;;6.55;;
32872;SDS011;19224;52.462;16.898;2023-04-01T04:26:02;8.48;;;6.97;;
32872;SDS011;19224;52.462;16.898;2023-04-01T04:28:35;9.18;;;6.90;;
32872;SDS011;19224;52.462;16.898;2023-04-01T04:31:06;9.15;;;7.10;;
32872;SDS011;19224;52.462;16.898;2023-04-01T04:33:37;8.83;;;7.37;;
32872;SDS011;19224;52.462;16.898;2023-04-01T04:36:08;11.20;;;7.15;;
32872;SDS011;19224;52.462;16.898;2023-04-01T04:38:38;11.45;;;7.60;;
32872;SDS011;19224;52.462;16.898;2023-04-01T04:41:10;12.23;;;8.38;;
32872;SDS011;19224;52.462;16.898;2023-04-01T04:43:48;11.18;;;8.00;;
32872;SDS011;19224;52.462;16.898;2023-04-01T04:46:22;12.88;;;7.90;;
32872;SDS011;19224;52.462;16.898;2023-04-01T04:48:54;9.50;;;7.62;;
32872;SDS011;19224;52.462;16.898;2023-04-01T04:51:25;9.93;;;7.60;;
32872;SDS011;19224;52.462;16.898;2023-04-01T04:53:55;11.70;;;7.58;;
32872;SDS011;19224;52.462;16.898;2023-04-01T04:56:26;13.72;;;8.55;;
32872;SDS011;19224;52.462;16.898;2023-04-01T04:58:56;11.35;;;8.03;;
32872;SDS011;19224;52.462;16.898;2023-04-01T05:01:27;19.20;;;7.87;;
32872;SDS011;19224;52.462;16.898;2023-04-01T05:03:58;11.85;;;7.40;;
32872;SDS011;19224;52.462;16.898;2023-04-01T05:06:28;10.30;;;7.42;;
32872;SDS011;19224;52.462;16.898;2023-04-01T05:08:59;11.85;;;7.58;;
32872;SDS011;19224;52.462;16.898;2023-04-01T05:11:29;9.68;;;7.30;;
32872;SDS011;19224;52.462;16.898;2023-04-01T05:14:00;9.35;;;7.10;;
32872;SDS011;19224;52.462;16.898;2023-04-01T05:16:30;9.23;;;7.08;;
32872;SDS011;19224;52.462;16.898;2023-04-01T05:19:03;9.38;;;6.67;;
32872;SDS011;19224;52.462;16.898;2023-04-01T05:21:33;11.22;;;7.45;;
32872;SDS011;19224;52.462;16.898;2023-04-01T05:24:06;15.93;;;8.80;;
32872;SDS011;19224;52.462;16.898;2023-04-01T05:26:38;10.80;;;8.05;;
32872;SDS011;19224;52.462;16.898;2023-04-01T05:29:08;10.82;;;7.28;;
32872;SDS011;19224;52.462;16.898;2023-04-01T05:31:40;9.25;;;6.92;;
32872;SDS011;19224;52.462;16.898;2023-04-01T05:34:10;13.15;;;7.40;;
32872;SDS011;19224;52.462;16.898;2023-04-01T05:36:42;10.55;;;7.40;;
32872;SDS011;19224;52.462;16.898;2023-04-01T05:39:13;8.83;;;6.62;;
32872;SDS011;19224;52.462;16.898;2023-04-01T05:41:43;9.20;;;7.17;;
32872;SDS011;19224;52.462;16.898;2023-04-01T05:44:14;7.40;;;6.28;;
32872;SDS011;19224;52.462;16.898;2023-04-01T05:46:44;7.65;;;6.20;;
32872;SDS011;19224;52.462;16.898;2023-04-01T05:49:15;9.23;;;6.30;;
32872;SDS011;19224;52.462;16.898;2023-04-01T05:51:45;10.93;;;6.08;;
32872;SDS011;19224;52.462;16.898;2023-04-01T05:54:16;7.42;;;5.83;;
32872;SDS011;19224;52.462;16.898;2023-04-01T05:56:47;7.87;;;5.78;;
32872;SDS011;19224;52.462;16.898;2023-04-01T05:59:18;8.18;;;5.58;;
32872;SDS011;19224;52.462;16.898;2023-04-01T06:01:49;7.33;;;5.17;;
32872;SDS011;19224;52.462;16.898;2023-04-01T06:04:19;5.70;;;4.83;;
32872;SDS011;19224;52.462;16.898;2023-04-01T06:06:50;6.10;;;5.00;;
32872;SDS011;19224;52.462;16.898;2023-04-01T06:09:29;6.62;;;4.70;;
32872;SDS011;19224;52.462;16.898;2023-04-01T06:15:18;5.55;;;4.53;;
32872;SDS011;19224;52.462;16.898;2023-04-01T06:21:02;6.08;;;4.40;;
32872;SDS011;19224;52.462;16.898;2023-04-01T06:30:04;5.30;;;4.20;;
32872;SDS011;19224;52.462;16.898;2023-04-01T06:32:54;4.80;;;3.87;;
32872;SDS011;19224;52.462;16.898;2023-04-01T06:38:48;13.83;;;5.28;;
32872;SDS011;19224;52.462;16.898;2023-04-01T06:50:36;9.73;;;7.00;;
32872;SDS011;19224;52.462;16.898;2023-04-01T06:53:12;12.47;;;8.65;;
32872;SDS011;19224;52.462;16.898;2023-04-01T06:56:08;14.30;;;8.18;;
32872;SDS011;19224;52.462;16.898;2023-04-01T06:58:35;11.08;;;7.75;;
32872;SDS011;19224;52.462;16.898;2023-04-01T07:01:23;11.28;;;8.48;;
32872;SDS011;19224;52.462;16.898;2023-04-01T07:03:55;11.43;;;7.12;;
32872;SDS011;19224;52.462;16.898;2023-04-01T07:06:45;10.78;;;7.42;;
32872;SDS011;19224;52.462;16.898;2023-04-01T07:09:40;9.55;;;7.40;;
32872;SDS011;19224;52.462;16.898;2023-04-01T07:12:37;10.25;;;7.47;;
32872;SDS011;19224;52.462;16.898;2023-04-01T07:14:53;8.95;;;6.72;;
32872;SDS011;19224;52.462;16.898;2023-04-01T07:17:27;12.13;;;7.67;;
32872;SDS011;19224;52.462;16.898;2023-04-01T07:20:11;9.73;;;7.22;;
32872;SDS011;19224;52.462;16.898;2023-04-01T07:22:58;6.83;;;5.45;;
32872;SDS011;19224;52.462;16.898;2023-04-01T07:25:40;9.40;;;6.45;;
32872;SDS011;19224;52.462;16.898;2023-04-01T07:28:13;8.08;;;6.05;;
32872;SDS011;19224;52.462;16.898;2023-04-01T07:36:54;9.48;;;6.20;;
32872;SDS011;19224;52.462;16.898;2023-04-01T07:39:53;8.20;;;5.25;;
32872;SDS011;19224;52.462;16.898;2023-04-01T07:42:48;7.33;;;4.95;;
32872;SDS011;19224;52.462;16.898;2023-04-01T07:57:38;7.75;;;4.87;;
32872;SDS011;19224;52.462;16.898;2023-04-01T08:00:21;12.33;;;6.47;;
32872;SDS011;19224;52.462;16.898;2023-04-01T08:09:06;6.08;;;4.72;;
32872;SDS011;19224;52.462;16.898;2023-04-01T08:14:39;7.72;;;5.12;;
32872;SDS011;19224;52.462;16.898;2023-04-01T08:20:22;10.03;;;7.00;;
32872;SDS011;19224;52.462;16.898;2023-04-01T08:25:46;6.33;;;4.67;;
32872;SDS011;19224;52.462;16.898;2023-04-01T08:28:29;8.43;;;5.78;;
32872;SDS011;19224;52.462;16.898;2023-04-01T08:34:20;8.48;;;5.67;;
32872;SDS011;19224;52.462;16.898;2023-04-01T08:36:57;8.33;;;5.55;;
32872;SDS011;19224;52.462;16.898;2023-04-01T08:45:29;12.05;;;7.35;;
32872;SDS011;19224;52.462;16.898;2023-04-01T08:48:32;11.22;;;7.87;;
32872;SDS011;19224;52.462;16.898;2023-04-01T08:57:17;16.00;;;7.70;;
32872;SDS011;19224;52.462;16.898;2023-04-01T09:03:08;10.28;;;7.62;;
32872;SDS011;19224;52.462;16.898;2023-04-01T09:05:46;10.40;;;7.37;;
32872;SDS011;19224;52.462;16.898;2023-04-01T09:15:04;14.50;;;9.58;;
32872;SDS011;19224;52.462;16.898;2023-04-01T09:21:09;13.25;;;8.50;;
32872;SDS011;19224;52.462;16.898;2023-04-01T09:24:07;18.40;;;11.18;;
32872;SDS011;19224;52.462;16.898;2023-04-01T09:35:47;15.45;;;9.93;;
32872;SDS011;19224;52.462;16.898;2023-04-01T09:38:35;15.90;;;10.00;;
32872;SDS011;19224;52.462;16.898;2023-04-01T09:41:45;16.15;;;10.05;;
32872;SDS011;19224;52.462;16.898;2023-04-01T09:47:23;16.48;;;10.10;;
32872;SDS011;19224;52.462;16.898;2023-04-01T09:50:35;17.92;;;10.58;;
32872;SDS011;19224;52.462;16.898;2023-04-01T09:59:22;42.38;;;11.50;;
32872;SDS011;19224;52.462;16.898;2023-04-01T10:26:27;21.60;;;13.55;;
32872;SDS011;19224;52.462;16.898;2023-04-01T10:29:43;21.82;;;13.50;;
32872;SDS011;19224;52.462;16.898;2023-04-01T10:32:49;25.92;;;14.07;;
32872;SDS011;19224;52.462;16.898;2023-04-01T11:23:20;15.30;;;9.53;;
32872;SDS011;19224;52.462;16.898;2023-04-01T11:25:59;14.23;;;9.23;;
32872;SDS011;19224;52.462;16.898;2023-04-01T11:31:41;13.68;;;9.15;;
32872;SDS011;19224;52.462;16.898;2023-04-01T11:40:26;14.13;;;8.65;;
32872;SDS011;19224;52.462;16.898;2023-04-01T11:55:06;13.93;;;9.10;;
32872;SDS011;19224;52.462;16.898;2023-04-01T11:58:12;14.78;;;9.18;;
32872;SDS011;19224;52.462;16.898;2023-04-01T12:01:16;15.03;;;10.27;;
32872;SDS011;19224;52.462;16.898;2023-04-01T12:10:14;13.48;;;8.15;;
32872;SDS011;19224;52.462;16.898;2023-04-01T12:12:59;13.13;;;7.80;;
32872;SDS011;19224;52.462;16.898;2023-04-01T12:15:43;10.48;;;7.28;;
32872;SDS011;19224;52.462;16.898;2023-04-01T12:18:31;12.75;;;7.22;;
32872;SDS011;19224;52.462;16.898;2023-04-01T12:21:37;10.10;;;6.50;;
32872;SDS011;19224;52.462;16.898;2023-04-01T12:33:27;9.63;;;7.15;;
32872;SDS011;19224;52.462;16.898;2023-04-01T12:45:27;8.85;;;6.10;;
32872;SDS011;19224;52.462;16.898;2023-04-01T12:51:15;12.75;;;6.70;;
32872;SDS011;19224;52.462;16.898;2023-04-01T13:09:45;6.90;;;5.22;;
32872;SDS011;19224;52.462;16.898;2023-04-01T13:16:01;9.53;;;5.60;;
32872;SDS011;19224;52.462;16.898;2023-04-01T13:18:55;6.08;;;4.67;;
32872;SDS011;19224;52.462;16.898;2023-04-01T13:27:25;5.47;;;4.70;;
32872;SDS011;19224;52.462;16.898;2023-04-01T13:41:40;6.70;;;4.17;;
32872;SDS011;19224;52.462;16.898;2023-04-01T13:44:28;5.08;;;3.85;;
32872;SDS011;19224;52.462;16.898;2023-04-01T14:03:00;9.80;;;5.72;;
32872;SDS011;19224;52.462;16.898;2023-04-01T14:06:05;8.00;;;5.40;;
32872;SDS011;19224;52.462;16.898;2023-04-01T14:12:31;6.53;;;4.90;;
32872;SDS011;19224;52.462;16.898;2023-04-01T14:15:33;6.12;;;5.00;;
32872;SDS011;19224;52.462;16.898;2023-04-01T14:35:21;7.92;;;4.72;;
32872;SDS011;19224;52.462;16.898;2023-04-01T14:44:15;8.23;;;5.42;;
32872;SDS011;19224;52.462;16.898;2023-04-01T14:47:15;8.15;;;5.92;;
32872;SDS011;19224;52.462;16.898;2023-04-01T14:49:51;7.67;;;5.30;;
32872;SDS011;19224;52.462;16.898;2023-04-01T14:52:27;7.42;;;4.92;;
32872;SDS011;19224;52.462;16.898;2023-04-01T14:55:25;8.05;;;5.15;;
32872;SDS011;19224;52.462;16.898;2023-04-01T15:00:47;7.12;;;5.62;;
32872;SDS011;19224;52.462;16.898;2023-04-01T15:03:32;6.62;;;4.97;;
32872;SDS011;19224;52.462;16.898;2023-04-01T15:12:37;7.62;;;5.42;;
32872;SDS011;19224;52.462;16.898;2023-04-01T15:18:36;7.62;;;5.05;;
32872;SDS011;19224;52.462;16.898;2023-04-01T15:21:16;5.22;;;4.40;;
32872;SDS011;19224;52.462;16.898;2023-04-01T15:23:57;6.97;;;4.85;;
32872;SDS011;19224;52.462;16.898;2023-04-01T15:26:51;6.30;;;4.25;;
32872;SDS011;19224;52.462;16.898;2023-04-01T15:41:16;7.33;;;4.80;;
32872;SDS011;19224;52.462;16.898;2023-04-01T15:43:50;7.55;;;4.80;;
32872;SDS011;19224;52.462;16.898;2023-04-01T15:54:45;6.75;;;4.60;;
32872;SDS011;19224;52.462;16.898;2023-04-01T16:00:53;5.72;;;4.00;;
32872;SDS011;19224;52.462;16.898;2023-04-01T16:03:45;5.92;;;4.30;;
32872;SDS011;19224;52.462;16.898;2023-04-01T16:12:36;10.45;;;6.08;;
32872;SDS011;19224;52.462;16.898;2023-04-01T16:15:21;10.93;;;6.12;;
32872;SDS011;19224;52.462;16.898;2023-04-01T16:18:06;9.53;;;6.05;;
32872;SDS011;19224;52.462;16.898;2023-04-01T16:20:57;7.70;;;5.50;;
32872;SDS011;19224;52.462;16.898;2023-04-01T16:23:56;7.33;;;4.78;;
32872;SDS011;19224;52.462;16.898;2023-04-01T16:29:19;6.97;;;5.22;;
32872;SDS011;19224;52.462;16.898;2023-04-01T16:35:29;8.25;;;5.28;;
32872;SDS011;19224;52.462;16.898;2023-04-01T16:38:19;8.58;;;6.12;;
32872;SDS011;19224;52.462;16.898;2023-04-01T16:41:11;7.60;;;5.33;;
32872;SDS011;19224;52.462;16.898;2023-04-01T16:44:13;10.65;;;6.92;;
32872;SDS011;19224;52.462;16.898;2023-04-01T16:47:10;8.35;;;6.30;;
32872;SDS011;19224;52.462;16.898;2023-04-01T16:49:48;7.15;;;5.28;;
32872;SDS011;19224;52.462;16.898;2023-04-01T16:55:46;9.40;;;6.20;;
32872;SDS011;19224;52.462;16.898;2023-04-01T16:58:35;10.70;;;6.60;;
32872;SDS011;19224;52.462;16.898;2023-04-01T17:01:13;14.15;;;6.87;;
32872;SDS011;19224;52.462;16.898;2023-04-01T17:04:14;11.35;;;6.53;;
32872;SDS011;19224;52.462;16.898;2023-04-01T17:18:02;14.38;;;9.23;;
32872;SDS011;19224;52.462;16.898;2023-04-01T17:20:55;11.15;;;7.62;;
32872;SDS011;19224;52.462;16.898;2023-04-01T17:23:42;16.95;;;8.88;;
32872;SDS011;19224;52.462;16.898;2023-04-01T17:26:30;12.65;;;7.70;;
32872;SDS011;19224;52.462;16.898;2023-04-01T17:43:46;11.25;;;5.67;;
32872;SDS011;19224;52.462;16.898;2023-04-01T17:49:15;9.20;;;6.42;;
32872;SDS011;19224;52.462;16.898;2023-04-01T18:00:26;7.17;;;5.05;;
32872;SDS011;19224;52.462;16.898;2023-04-01T18:06:17;7.65;;;5.05;;
32872;SDS011;19224;52.462;16.898;2023-04-01T18:14:54;6.65;;;4.85;;
32872;SDS011;19224;52.462;16.898;2023-04-01T18:23:20;8.45;;;5.45;;
32872;SDS011;19224;52.462;16.898;2023-04-01T18:26:08;5.72;;;4.33;;
32872;SDS011;19224;52.462;16.898;2023-04-01T18:29:13;5.60;;;4.42;;
32872;SDS011;19224;52.462;16.898;2023-04-01T18:35:34;7.65;;;4.75;;
32872;SDS011;19224;52.462;16.898;2023-04-01T18:38:34;8.10;;;4.95;;
32872;SDS011;19224;52.462;16.898;2023-04-01T18:41:13;9.50;;;5.62;;
32872;SDS011;19224;52.462;16.898;2023-04-01T18:47:23;7.75;;;4.75;;
32872;SDS011;19224;52.462;16.898;2023-04-01T18:50:27;9.20;;;6.60;;
32872;SDS011;19224;52.462;16.898;2023-04-01T18:56:14;7.87;;;4.50;;
32872;SDS011;19224;52.462;16.898;2023-04-01T18:59:11;6.28;;;4.60;;
32872;SDS011;19224;52.462;16.898;2023-04-01T19:05:17;6.35;;;4.60;;
32872;SDS011;19224;52.462;16.898;2023-04-01T19:07:51;6.10;;;4.42;;
32872;SDS011;19224;52.462;16.898;2023-04-01T19:10:36;7.92;;;4.70;;
32872;SDS011;19224;52.462;16.898;2023-04-01T19:19:18;8.53;;;5.17;;
32872;SDS011;19224;52.462;16.898;2023-04-01T19:33:36;6.40;;;3.90;;
32872;SDS011;19224;52.462;16.898;2023-04-01T19:39:07;7.00;;;4.55;;
32872;SDS011;19224;52.462;16.898;2023-04-01T19:53:37;6.78;;;3.85;;
32872;SDS011;19224;52.462;16.898;2023-04-01T19:56:19;5.95;;;3.90;;
32872;SDS011;19224;52.462;16.898;2023-04-01T20:02:14;6.33;;;4.20;;
32872;SDS011;19224;52.462;16.898;2023-04-01T20:04:53;7.62;;;4.85;;
32872;SDS011;19224;52.462;16.898;2023-04-01T20:07:41;5.97;;;4.47;;
32872;SDS011;19224;52.462;16.898;2023-04-01T20:13:45;4.62;;;3.62;;
32872;SDS011;19224;52.462;16.898;2023-04-01T20:19:29;6.95;;;4.30;;
32872;SDS011;19224;52.462;16.898;2023-04-01T20:28:30;5.15;;;3.98;;
32872;SDS011;19224;52.462;16.898;2023-04-01T20:31:33;5.03;;;3.98;;
32872;SDS011;19224;52.462;16.898;2023-04-01T20:37:42;5.90;;;4.03;;
32872;SDS011;19224;52.462;16.898;2023-04-01T20:40:29;7.28;;;4.20;;
32872;SDS011;19224;52.462;16.898;2023-04-01T20:45:51;6.67;;;4.28;;
32872;SDS011;19224;52.462;16.898;2023-04-01T20:51:58;8.40;;;4.17;;
32872;SDS011;19224;52.462;16.898;2023-04-01T20:54:41;7.40;;;4.70;;
32872;SDS011;19224;52.462;16.898;2023-04-01T20:57:25;5.70;;;4.05;;
32872;SDS011;19224;52.462;16.898;2023-04-01T21:00:15;5.92;;;3.90;;
32872;SDS011;19224;52.462;16.898;2023-04-01T21:06:03;7.83;;;4.12;;
32872;SDS011;19224;52.462;16.898;2023-04-01T21:08:59;6.00;;;4.47;;
32872;SDS011;19224;52.462;16.898;2023-04-01T21:21:02;9.18;;;5.17;;
32872;SDS011;19224;52.462;16.898;2023-04-01T21:30:17;7.20;;;5.45;;
32872;SDS011;19224;52.462;16.898;2023-04-01T21:36:00;7.72;;;5.42;;
32872;SDS011;19224;52.462;16.898;2023-04-01T22:08:24;10.30;;;6.35;;
32872;SDS011;19224;52.462;16.898;2023-04-01T22:14:08;10.03;;;6.67;;
32872;SDS011;19224;52.462;16.898;2023-04-01T22:16:56;10.23;;;6.40;;
32872;SDS011;19224;52.462;16.898;2023-04-01T22:19:35;11.48;;;7.22;;
32872;SDS011;19224;52.462;16.898;2023-04-01T22:22:14;25.15;;;10.35;;
32872;SDS011;19224;52.462;16.898;2023-04-01T22:24:59;29.65;;;10.95;;
32872;SDS011;19224;52.462;16.898;2023-04-01T22:27:52;21.75;;;9.20;;
32872;SDS011;19224;52.462;16.898;2023-04-01T22:30:31;9.75;;;5.83;;
32872;SDS011;19224;52.462;16.898;2023-04-01T22:33:15;10.60;;;5.97;;
32872;SDS011;19224;52.462;16.898;2023-04-01T22:41:37;9.23;;;5.92;;
32872;SDS011;19224;52.462;16.898;2023-04-01T22:44:27;9.95;;;5.90;;
32872;SDS011;19224;52.462;16.898;2023-04-01T22:52:50;7.92;;;4.83;;
32872;SDS011;19224;52.462;16.898;2023-04-01T22:55:25;8.93;;;5.62;;
32872;SDS011;19224;52.462;16.898;2023-04-01T22:57:59;10.45;;;5.87;;
32872;SDS011;19224;52.462;16.898;2023-04-01T23:00:48;11.05;;;6.35;;
32872;SDS011;19224;52.462;16.898;2023-04-01T23:03:30;9.45;;;5.90;;
32872;SDS011;19224;52.462;16.898;2023-04-01T23:06:04;10.88;;;5.45;;
32872;SDS011;19224;52.462;16.898;2023-04-01T23:09:01;9.13;;;5.17;;
32872;SDS011;19224;52.462;16.898;2023-04-01T23:12:01;11.45;;;5.65;;
32872;SDS011;19224;52.462;16.898;2023-04-01T23:14:44;10.53;;;5.87;;
32872;SDS011;19224;52.462;16.898;2023-04-01T23:17:25;9.00;;;5.35;;
32872;SDS011;19224;52.462;16.898;2023-04-01T23:20:24;10.05;;;5.12;;
32872;SDS011;19224;52.462;16.898;2023-04-01T23:31:00;9.98;;;5.12;;
32872;SDS011;19224;52.462;16.898;2023-04-01T23:33:30;8.08;;;4.95;;
32872;SDS011;19224;52.462;16.898;2023-04-01T23:36:02;6.62;;;4.62;;
32872;SDS011;19224;52.462;16.898;2023-04-01T23:38:43;11.22;;;4.92;;
32872;SDS011;19224;52.462;16.898;2023-04-01T23:41:27;8.08;;;4.62;;
32872;SDS011;19224;52.462;16.898;2023-04-01T23:44:13;9.57;;;5.03;;
32872;SDS011;19224;52.462;16.898;2023-04-01T23:46:46;9.28;;;4.25;;
32872;SDS011;19224;52.462;16.898;2023-04-01T23:49:25;9.23;;;4.80;;
32872;SDS011;19224;52.462;16.898;2023-04-01T23:52:04;9.25;;;4.60;;
32872;SDS011;19224;52.462;16.898;2023-04-01T23:54:55;7.12;;;4.95;;
32872;SDS011;19224;52.462;16.898;2023-04-01T23:57:32;8.30;;;4.33;;
